Check out our new PWSWeather beta!
PWSweather.com
Personal Weather Stations
Station Observations
KD5LEN
Ktxnorth1, North Richland Hills, TX 76180

Ktxnorth1North Richland Hills, TX 76180

Lat: 32.885294, Lon: -97.236048

Elevation: 694

Station Type: Vantage Pro 2

http://www.atzer0.net/VWS/root/index.htm

High Low Average
Temperature 57.7°F14.3°C 48.3°F9.1°C 52.6°F11.4°C
Dew Point 32.4°F0.2°C 29.3°F-1.5°C 31.0°F-0.6°C
Winds 4.0 mph 6.4 kmh Calm Calm 2.0 mph ENE3.2 kmh ENE
Wind Gusts 4.0 mph6.4 kmh 1.0 mph1.6 kmh 3.0 mph4.8 kmh
Humidity 53% 36% 44%
Pressure 30.27 in1025.1 mb 30.23 in1023.7 mb -
Precipitation 0.00 in0.0 mm - -
Hour Temp Dew Point Humidity Winds Wind Gusts Pressure Precip Precip Rate Daily Precip Total
05:32 PM 57.7°F14.3°C 31.0°F-0.6°C 36% 2.0 mph NE3.2 kmh NE 3.0 mph4.8 kmh 30.26 in1024.7 mb 0.00 in0.0 mm 0.00 in0.0 mm 0.00 in0.0 mm
05:34 PM 57.6°F14.2°C 30.9°F-0.6°C 36% 2.0 mph NE3.2 kmh NE 3.0 mph4.8 kmh 30.26 in1024.7 mb 0.00 in0.0 mm 0.00 in0.0 mm 0.00 in0.0 mm
05:36 PM 57.4°F14.1°C 31.4°F-0.3°C 37% 2.0 mph NE3.2 kmh NE 3.0 mph4.8 kmh 30.26 in1024.7 mb 0.00 in0.0 mm 0.00 in0.0 mm 0.00 in0.0 mm
05:38 PM 57.2°F14.0°C 31.2°F-0.4°C 37% 2.0 mph NE3.2 kmh NE 3.0 mph4.8 kmh 30.26 in1024.7 mb 0.00 in0.0 mm 0.00 in0.0 mm 0.00 in0.0 mm
05:40 PM 57.0°F13.9°C 31.0°F-0.6°C 37% 1.0 mph NE1.6 kmh NE 3.0 mph4.8 kmh 30.26 in1024.7 mb 0.00 in0.0 mm 0.00 in0.0 mm 0.00 in0.0 mm
05:42 PM 56.9°F13.8°C 31.6°F-0.2°C 38% 2.0 mph NE3.2 kmh NE 3.0 mph4.8 kmh 30.26 in1024.7 mb 0.00 in0.0 mm 0.00 in0.0 mm 0.00 in0.0 mm
05:44 PM 56.7°F13.7°C 31.4°F-0.3°C 38% 2.0 mph NE3.2 kmh NE 3.0 mph4.8 kmh 30.26 in1024.7 mb 0.00 in0.0 mm 0.00 in0.0 mm 0.00 in0.0 mm
05:46 PM 56.6°F13.7°C 31.3°F-0.4°C 38% 3.0 mph NE4.8 kmh NE 3.0 mph4.8 kmh 30.26 in1024.7 mb 0.00 in0.0 mm 0.00 in0.0 mm 0.00 in0.0 mm
05:48 PM 56.4°F13.6°C 31.8°F-0.1°C 39% 2.0 mph NE3.2 kmh NE 3.0 mph4.8 kmh 30.26 in1024.7 mb 0.00 in0.0 mm 0.00 in0.0 mm 0.00 in0.0 mm
05:50 PM 56.2°F13.4°C 31.6°F-0.2°C 39% 1.0 mph NE1.6 kmh NE 3.0 mph4.8 kmh 30.26 in1024.7 mb 0.00 in0.0 mm 0.00 in0.0 mm 0.00 in0.0 mm
05:52 PM 56.1°F13.4°C 31.5°F-0.3°C 39% 2.0 mph NE3.2 kmh NE 3.0 mph4.8 kmh 30.26 in1024.7 mb 0.00 in0.0 mm 0.00 in0.0 mm 0.00 in0.0 mm
05:54 PM 56.0°F13.3°C 31.4°F-0.3°C 39% 1.0 mph NE1.6 kmh NE 3.0 mph4.8 kmh 30.27 in1025.1 mb 0.00 in0.0 mm 0.00 in0.0 mm 0.00 in0.0 mm
05:56 PM 55.8°F13.2°C 31.2°F-0.4°C 39% 2.0 mph NE3.2 kmh NE 3.0 mph4.8 kmh 30.26 in1024.7 mb 0.00 in0.0 mm 0.00 in0.0 mm 0.00 in0.0 mm
05:58 PM 55.6°F13.1°C 31.1°F-0.5°C 39% 2.0 mph NE3.2 kmh NE 3.0 mph4.8 kmh 30.26 in1024.7 mb 0.00 in0.0 mm 0.00 in0.0 mm 0.00 in0.0 mm
06:00 PM 55.5°F13.1°C 31.0°F-0.6°C 39% 2.0 mph NE3.2 kmh NE 3.0 mph4.8 kmh 30.26 in1024.7 mb 0.00 in0.0 mm 0.00 in0.0 mm 0.00 in0.0 mm
06:02 PM 55.4°F13.0°C 30.9°F-0.6°C 39% 3.0 mph NE4.8 kmh NE 3.0 mph4.8 kmh 30.27 in1025.1 mb 0.00 in0.0 mm 0.00 in0.0 mm 0.00 in0.0 mm
06:04 PM 55.3°F12.9°C 30.8°F-0.7°C 39% 3.0 mph NE4.8 kmh NE 3.0 mph4.8 kmh 30.27 in1025.1 mb 0.00 in0.0 mm 0.00 in0.0 mm 0.00 in0.0 mm
06:06 PM 55.2°F12.9°C 30.7°F-0.7°C 39% 3.0 mph NE4.8 kmh NE 3.0 mph4.8 kmh 30.26 in1024.7 mb 0.00 in0.0 mm 0.00 in0.0 mm 0.00 in0.0 mm
06:08 PM 55.2°F12.9°C 30.7°F-0.7°C 39% 2.0 mph NE3.2 kmh NE 3.0 mph4.8 kmh 30.26 in1024.7 mb 0.00 in0.0 mm 0.00 in0.0 mm 0.00 in0.0 mm
06:10 PM 55.2°F12.9°C 30.7°F-0.7°C 39% 2.0 mph NE3.2 kmh NE 3.0 mph4.8 kmh 30.26 in1024.7 mb 0.00 in0.0 mm 0.00 in0.0 mm 0.00 in0.0 mm
06:12 PM 55.1°F12.8°C 30.6°F-0.8°C 39% 3.0 mph NE4.8 kmh NE 3.0 mph4.8 kmh 30.26 in1024.7 mb 0.00 in0.0 mm 0.00 in0.0 mm 0.00 in0.0 mm
06:14 PM 55.1°F12.8°C 30.6°F-0.8°C 39% 2.0 mph NE3.2 kmh NE 4.0 mph6.4 kmh 30.26 in1024.7 mb 0.00 in0.0 mm 0.00 in0.0 mm 0.00 in0.0 mm
06:16 PM 55.0°F12.8°C 30.5°F-0.8°C 39% 2.0 mph NE3.2 kmh NE 4.0 mph6.4 kmh 30.26 in1024.7 mb 0.00 in0.0 mm 0.00 in0.0 mm 0.00 in0.0 mm
06:18 PM 55.0°F12.8°C 30.5°F-0.8°C 39% 2.0 mph NE3.2 kmh NE 4.0 mph6.4 kmh 30.26 in1024.7 mb 0.00 in0.0 mm 0.00 in0.0 mm 0.00 in0.0 mm
06:20 PM 55.0°F12.8°C 30.5°F-0.8°C 39% 2.0 mph NE3.2 kmh NE 4.0 mph6.4 kmh 30.26 in1024.7 mb 0.00 in0.0 mm 0.00 in0.0 mm 0.00 in0.0 mm
06:22 PM 54.9°F12.7°C 30.4°F-0.9°C 39% 2.0 mph NE3.2 kmh NE 4.0 mph6.4 kmh 30.26 in1024.7 mb 0.00 in0.0 mm 0.00 in0.0 mm 0.00 in0.0 mm
06:24 PM 54.9°F12.7°C 30.4°F-0.9°C 39% 2.0 mph NE3.2 kmh NE 4.0 mph6.4 kmh 30.26 in1024.7 mb 0.00 in0.0 mm 0.00 in0.0 mm 0.00 in0.0 mm
06:26 PM 54.9°F12.7°C 30.4°F-0.9°C 39% 3.0 mph NE4.8 kmh NE 4.0 mph6.4 kmh 30.26 in1024.7 mb 0.00 in0.0 mm 0.00 in0.0 mm 0.00 in0.0 mm
06:28 PM 54.9°F12.7°C 29.8°F-1.2°C 38% 2.0 mph NE3.2 kmh NE 4.0 mph6.4 kmh 30.26 in1024.7 mb 0.00 in0.0 mm 0.00 in0.0 mm 0.00 in0.0 mm
06:30 PM 55.0°F12.8°C 29.9°F-1.2°C 38% 2.0 mph NE3.2 kmh NE 4.0 mph6.4 kmh 30.26 in1024.7 mb 0.00 in0.0 mm 0.00 in0.0 mm 0.00 in0.0 mm
06:32 PM 55.0°F12.8°C 29.9°F-1.2°C 38% 2.0 mph NE3.2 kmh NE 2.0 mph3.2 kmh 30.26 in1024.7 mb 0.00 in0.0 mm 0.00 in0.0 mm 0.00 in0.0 mm
06:34 PM 55.0°F12.8°C 29.9°F-1.2°C 38% 3.0 mph NE4.8 kmh NE 3.0 mph4.8 kmh 30.26 in1024.7 mb 0.00 in0.0 mm 0.00 in0.0 mm 0.00 in0.0 mm
06:36 PM 54.9°F12.7°C 29.8°F-1.2°C 38% 1.0 mph NE1.6 kmh NE 3.0 mph4.8 kmh 30.26 in1024.7 mb 0.00 in0.0 mm 0.00 in0.0 mm 0.00 in0.0 mm
06:38 PM 54.9°F12.7°C 29.8°F-1.2°C 38% 3.0 mph NE4.8 kmh NE 3.0 mph4.8 kmh 30.26 in1024.7 mb 0.00 in0.0 mm 0.00 in0.0 mm 0.00 in0.0 mm
06:40 PM 54.8°F12.7°C 29.7°F-1.3°C 38% 3.0 mph NE4.8 kmh NE 3.0 mph4.8 kmh 30.26 in1024.7 mb 0.00 in0.0 mm 0.00 in0.0 mm 0.00 in0.0 mm
06:42 PM 54.8°F12.7°C 29.7°F-1.3°C 38% 2.0 mph NE3.2 kmh NE 3.0 mph4.8 kmh 30.26 in1024.7 mb 0.00 in0.0 mm 0.00 in0.0 mm 0.00 in0.0 mm
06:44 PM 54.8°F12.7°C 29.7°F-1.3°C 38% 2.0 mph NE3.2 kmh NE 3.0 mph4.8 kmh 30.26 in1024.7 mb 0.00 in0.0 mm 0.00 in0.0 mm 0.00 in0.0 mm
06:46 PM 54.8°F12.7°C 29.7°F-1.3°C 38% 2.0 mph NE3.2 kmh NE 3.0 mph4.8 kmh 30.26 in1024.7 mb 0.00 in0.0 mm 0.00 in0.0 mm 0.00 in0.0 mm
06:48 PM 54.8°F12.7°C 29.7°F-1.3°C 38% 2.0 mph NE3.2 kmh NE 3.0 mph4.8 kmh 30.26 in1024.7 mb 0.00 in0.0 mm 0.00 in0.0 mm 0.00 in0.0 mm
06:50 PM 54.8°F12.7°C 29.7°F-1.3°C 38% 2.0 mph NE3.2 kmh NE 3.0 mph4.8 kmh 30.26 in1024.7 mb 0.00 in0.0 mm 0.00 in0.0 mm 0.00 in0.0 mm
06:52 PM 54.7°F12.6°C 29.6°F-1.3°C 38% 2.0 mph NE3.2 kmh NE 3.0 mph4.8 kmh 30.26 in1024.7 mb 0.00 in0.0 mm 0.00 in0.0 mm 0.00 in0.0 mm
06:54 PM 54.7°F12.6°C 29.6°F-1.3°C 38% 2.0 mph NE3.2 kmh NE 3.0 mph4.8 kmh 30.26 in1024.7 mb 0.00 in0.0 mm 0.00 in0.0 mm 0.00 in0.0 mm
06:56 PM 54.7°F12.6°C 29.6°F-1.3°C 38% 2.0 mph NE3.2 kmh NE 3.0 mph4.8 kmh 30.26 in1024.7 mb 0.00 in0.0 mm 0.00 in0.0 mm 0.00 in0.0 mm
06:58 PM 54.7°F12.6°C 29.6°F-1.3°C 38% 2.0 mph NE3.2 kmh NE 3.0 mph4.8 kmh 30.26 in1024.7 mb 0.00 in0.0 mm 0.00 in0.0 mm 0.00 in0.0 mm
07:00 PM 54.7°F12.6°C 29.6°F-1.3°C 38% 2.0 mph NE3.2 kmh NE 3.0 mph4.8 kmh 30.26 in1024.7 mb 0.00 in0.0 mm 0.00 in0.0 mm 0.00 in0.0 mm
07:02 PM 54.7°F12.6°C 29.6°F-1.3°C 38% 2.0 mph NE3.2 kmh NE 3.0 mph4.8 kmh 30.26 in1024.7 mb 0.00 in0.0 mm 0.00 in0.0 mm 0.00 in0.0 mm
07:04 PM 54.8°F12.7°C 30.3°F-0.9°C 39% 2.0 mph NE3.2 kmh NE 3.0 mph4.8 kmh 30.27 in1025.1 mb 0.00 in0.0 mm 0.00 in0.0 mm 0.00 in0.0 mm
07:06 PM 54.7°F12.6°C 29.6°F-1.3°C 38% 2.0 mph NE3.2 kmh NE 3.0 mph4.8 kmh 30.26 in1024.7 mb 0.00 in0.0 mm 0.00 in0.0 mm 0.00 in0.0 mm
07:08 PM 54.8°F12.7°C 29.7°F-1.3°C 38% 2.0 mph NE3.2 kmh NE 3.0 mph4.8 kmh 30.26 in1024.7 mb 0.00 in0.0 mm 0.00 in0.0 mm 0.00 in0.0 mm
07:10 PM 54.7°F12.6°C 30.3°F-0.9°C 39% 1.0 mph NE1.6 kmh NE 3.0 mph4.8 kmh 30.26 in1024.7 mb 0.00 in0.0 mm 0.00 in0.0 mm 0.00 in0.0 mm
07:12 PM 54.7°F12.6°C 30.3°F-0.9°C 39% 1.0 mph NE1.6 kmh NE 3.0 mph4.8 kmh 30.26 in1024.7 mb 0.00 in0.0 mm 0.00 in0.0 mm 0.00 in0.0 mm
07:14 PM 54.5°F12.5°C 30.1°F-1.1°C 39% 1.0 mph NE1.6 kmh NE 3.0 mph4.8 kmh 30.26 in1024.7 mb 0.00 in0.0 mm 0.00 in0.0 mm 0.00 in0.0 mm
07:16 PM 54.4°F12.4°C 29.3°F-1.5°C 38% 2.0 mph NE3.2 kmh NE 3.0 mph4.8 kmh 30.26 in1024.7 mb 0.00 in0.0 mm 0.00 in0.0 mm 0.00 in0.0 mm
07:18 PM 54.3°F12.4°C 29.3°F-1.5°C 38% 2.0 mph NE3.2 kmh NE 3.0 mph4.8 kmh 30.26 in1024.7 mb 0.00 in0.0 mm 0.00 in0.0 mm 0.00 in0.0 mm
07:20 PM 54.3°F12.4°C 29.9°F-1.2°C 39% 2.0 mph NE3.2 kmh NE 3.0 mph4.8 kmh 30.26 in1024.7 mb 0.00 in0.0 mm 0.00 in0.0 mm 0.00 in0.0 mm
07:22 PM 54.3°F12.4°C 30.5°F-0.8°C 40% 1.0 mph NE1.6 kmh NE 3.0 mph4.8 kmh 30.26 in1024.7 mb 0.00 in0.0 mm 0.00 in0.0 mm 0.00 in0.0 mm
07:24 PM 54.1°F12.3°C 30.3°F-0.9°C 40% 1.0 mph NE1.6 kmh NE 3.0 mph4.8 kmh 30.26 in1024.7 mb 0.00 in0.0 mm 0.00 in0.0 mm 0.00 in0.0 mm
07:26 PM 53.9°F12.2°C 30.2°F-1.0°C 40% 2.0 mph NE3.2 kmh NE 3.0 mph4.8 kmh 30.26 in1024.7 mb 0.00 in0.0 mm 0.00 in0.0 mm 0.00 in0.0 mm
07:28 PM 53.7°F12.1°C 30.0°F-1.1°C 40% 2.0 mph NE3.2 kmh NE 3.0 mph4.8 kmh 30.26 in1024.7 mb 0.00 in0.0 mm 0.00 in0.0 mm 0.00 in0.0 mm
07:30 PM 53.7°F12.1°C 30.0°F-1.1°C 40% 1.0 mph NE1.6 kmh NE 3.0 mph4.8 kmh 30.26 in1024.7 mb 0.00 in0.0 mm 0.00 in0.0 mm 0.00 in0.0 mm
07:32 PM 53.6°F12.0°C 29.9°F-1.2°C 40% 1.0 mph NE1.6 kmh NE 1.0 mph1.6 kmh 30.26 in1024.7 mb 0.00 in0.0 mm 0.00 in0.0 mm 0.00 in0.0 mm
07:34 PM 53.6°F12.0°C 29.9°F-1.2°C 40% 1.0 mph NE1.6 kmh NE 2.0 mph3.2 kmh 30.26 in1024.7 mb 0.00 in0.0 mm 0.00 in0.0 mm 0.00 in0.0 mm
07:36 PM 53.6°F12.0°C 29.9°F-1.2°C 40% 2.0 mph NE3.2 kmh NE 2.0 mph3.2 kmh 30.26 in1024.7 mb 0.00 in0.0 mm 0.00 in0.0 mm 0.00 in0.0 mm
07:38 PM 53.5°F11.9°C 29.8°F-1.2°C 40% 2.0 mph NE3.2 kmh NE 2.0 mph3.2 kmh 30.26 in1024.7 mb 0.00 in0.0 mm 0.00 in0.0 mm 0.00 in0.0 mm
07:40 PM 53.4°F11.9°C 29.7°F-1.3°C 40% 2.0 mph NE3.2 kmh NE 2.0 mph3.2 kmh 30.26 in1024.7 mb 0.00 in0.0 mm 0.00 in0.0 mm 0.00 in0.0 mm
07:42 PM 53.4°F11.9°C 29.7°F-1.3°C 40% 2.0 mph NE3.2 kmh NE 2.0 mph3.2 kmh 30.26 in1024.7 mb 0.00 in0.0 mm 0.00 in0.0 mm 0.00 in0.0 mm
07:44 PM 53.4°F11.9°C 29.7°F-1.3°C 40% 1.0 mph NE1.6 kmh NE 2.0 mph3.2 kmh 30.26 in1024.7 mb 0.00 in0.0 mm 0.00 in0.0 mm 0.00 in0.0 mm
07:46 PM 53.4°F11.9°C 29.7°F-1.3°C 40% 1.0 mph NE1.6 kmh NE 2.0 mph3.2 kmh 30.26 in1024.7 mb 0.00 in0.0 mm 0.00 in0.0 mm 0.00 in0.0 mm
07:48 PM 53.5°F11.9°C 29.8°F-1.2°C 40% 1.0 mph NE1.6 kmh NE 2.0 mph3.2 kmh 30.26 in1024.7 mb 0.00 in0.0 mm 0.00 in0.0 mm 0.00 in0.0 mm
07:50 PM 53.5°F11.9°C 29.8°F-1.2°C 40% 1.0 mph NE1.6 kmh NE 2.0 mph3.2 kmh 30.26 in1024.7 mb 0.00 in0.0 mm 0.00 in0.0 mm 0.00 in0.0 mm
07:51 PM 53.5°F11.9°C 29.8°F-1.2°C 40% 1.0 mph NE1.6 kmh NE 2.0 mph3.2 kmh 30.26 in1024.7 mb 0.00 in0.0 mm 0.00 in0.0 mm 0.00 in0.0 mm
07:54 PM 53.5°F11.9°C 30.4°F-0.9°C 41% 2.0 mph NE3.2 kmh NE 2.0 mph3.2 kmh 30.26 in1024.7 mb 0.00 in0.0 mm 0.00 in0.0 mm 0.00 in0.0 mm
07:56 PM 53.4°F11.9°C 30.3°F-0.9°C 41% 2.0 mph NE3.2 kmh NE 2.0 mph3.2 kmh 30.26 in1024.7 mb 0.00 in0.0 mm 0.00 in0.0 mm 0.00 in0.0 mm
07:58 PM 53.4°F11.9°C 30.3°F-0.9°C 41% 2.0 mph NE3.2 kmh NE 3.0 mph4.8 kmh 30.26 in1024.7 mb 0.00 in0.0 mm 0.00 in0.0 mm 0.00 in0.0 mm
08:00 PM 53.5°F11.9°C 30.4°F-0.9°C 41% 2.0 mph NE3.2 kmh NE 3.0 mph4.8 kmh 30.26 in1024.7 mb 0.00 in0.0 mm 0.00 in0.0 mm 0.00 in0.0 mm
08:02 PM 53.6°F12.0°C 30.5°F-0.8°C 41% 2.0 mph NE3.2 kmh NE 2.0 mph3.2 kmh 30.26 in1024.7 mb 0.00 in0.0 mm 0.00 in0.0 mm 0.00 in0.0 mm
08:04 PM 53.7°F12.1°C 30.6°F-0.8°C 41% 1.0 mph NE1.6 kmh NE 3.0 mph4.8 kmh 30.26 in1024.7 mb 0.00 in0.0 mm 0.00 in0.0 mm 0.00 in0.0 mm
08:06 PM 53.8°F12.1°C 30.7°F-0.7°C 41% 2.0 mph NE3.2 kmh NE 3.0 mph4.8 kmh 30.26 in1024.7 mb 0.00 in0.0 mm 0.00 in0.0 mm 0.00 in0.0 mm
08:08 PM 53.8°F12.1°C 30.1°F-1.1°C 40% 3.0 mph NE4.8 kmh NE 3.0 mph4.8 kmh 30.26 in1024.7 mb 0.00 in0.0 mm 0.00 in0.0 mm 0.00 in0.0 mm
08:10 PM 53.8°F12.1°C 30.7°F-0.7°C 41% 3.0 mph NE4.8 kmh NE 3.0 mph4.8 kmh 30.26 in1024.7 mb 0.00 in0.0 mm 0.00 in0.0 mm 0.00 in0.0 mm
08:12 PM 53.8°F12.1°C 30.7°F-0.7°C 41% 3.0 mph NE4.8 kmh NE 3.0 mph4.8 kmh 30.26 in1024.7 mb 0.00 in0.0 mm 0.00 in0.0 mm 0.00 in0.0 mm
08:14 PM 53.9°F12.2°C 30.8°F-0.7°C 41% 3.0 mph NE4.8 kmh NE 4.0 mph6.4 kmh 30.26 in1024.7 mb 0.00 in0.0 mm 0.00 in0.0 mm 0.00 in0.0 mm
08:16 PM 53.9°F12.2°C 30.8°F-0.7°C 41% 3.0 mph NE4.8 kmh NE 4.0 mph6.4 kmh 30.26 in1024.7 mb 0.00 in0.0 mm 0.00 in0.0 mm 0.00 in0.0 mm
08:18 PM 53.9°F12.2°C 30.2°F-1.0°C 40% 2.0 mph NE3.2 kmh NE 4.0 mph6.4 kmh 30.26 in1024.7 mb 0.00 in0.0 mm 0.00 in0.0 mm 0.00 in0.0 mm
08:20 PM 53.9°F12.2°C 30.2°F-1.0°C 40% 2.0 mph NE3.2 kmh NE 4.0 mph6.4 kmh 30.26 in1024.7 mb 0.00 in0.0 mm 0.00 in0.0 mm 0.00 in0.0 mm
08:22 PM 53.8°F12.1°C 30.7°F-0.7°C 41% 3.0 mph NE4.8 kmh NE 4.0 mph6.4 kmh 30.26 in1024.7 mb 0.00 in0.0 mm 0.00 in0.0 mm 0.00 in0.0 mm
08:24 PM 53.7°F12.1°C 30.6°F-0.8°C 41% 2.0 mph NE3.2 kmh NE 4.0 mph6.4 kmh 30.26 in1024.7 mb 0.00 in0.0 mm 0.00 in0.0 mm 0.00 in0.0 mm
08:26 PM 53.6°F12.0°C 30.5°F-0.8°C 41% 3.0 mph NE4.8 kmh NE 4.0 mph6.4 kmh 30.26 in1024.7 mb 0.00 in0.0 mm 0.00 in0.0 mm 0.00 in0.0 mm
08:28 PM 53.5°F11.9°C 30.4°F-0.9°C 41% 2.0 mph NE3.2 kmh NE 4.0 mph6.4 kmh 30.26 in1024.7 mb 0.00 in0.0 mm 0.00 in0.0 mm 0.00 in0.0 mm
08:30 PM 53.4°F11.9°C 30.9°F-0.6°C 42% 3.0 mph NE4.8 kmh NE 4.0 mph6.4 kmh 30.26 in1024.7 mb 0.00 in0.0 mm 0.00 in0.0 mm 0.00 in0.0 mm
08:32 PM 53.3°F11.8°C 30.8°F-0.7°C 42% 2.0 mph NE3.2 kmh NE 4.0 mph6.4 kmh 30.26 in1024.7 mb 0.00 in0.0 mm 0.00 in0.0 mm 0.00 in0.0 mm
08:34 PM 53.2°F11.8°C 30.7°F-0.7°C 42% 3.0 mph NE4.8 kmh NE 3.0 mph4.8 kmh 30.26 in1024.7 mb 0.00 in0.0 mm 0.00 in0.0 mm 0.00 in0.0 mm
08:36 PM 53.1°F11.7°C 30.6°F-0.8°C 42% 3.0 mph NE4.8 kmh NE 3.0 mph4.8 kmh 30.26 in1024.7 mb 0.00 in0.0 mm 0.00 in0.0 mm 0.00 in0.0 mm
08:38 PM 53.0°F11.7°C 31.1°F-0.5°C 43% 3.0 mph NE4.8 kmh NE 3.0 mph4.8 kmh 30.26 in1024.7 mb 0.00 in0.0 mm 0.00 in0.0 mm 0.00 in0.0 mm
08:40 PM 52.9°F11.6°C 31.0°F-0.6°C 43% 2.0 mph NE3.2 kmh NE 4.0 mph6.4 kmh 30.26 in1024.7 mb 0.00 in0.0 mm 0.00 in0.0 mm 0.00 in0.0 mm
08:42 PM 52.8°F11.6°C 30.9°F-0.6°C 43% 2.0 mph NE3.2 kmh NE 4.0 mph6.4 kmh 30.26 in1024.7 mb 0.00 in0.0 mm 0.00 in0.0 mm 0.00 in0.0 mm
08:44 PM 52.7°F11.5°C 30.9°F-0.6°C 43% 3.0 mph NE4.8 kmh NE 4.0 mph6.4 kmh 30.26 in1024.7 mb 0.00 in0.0 mm 0.00 in0.0 mm 0.00 in0.0 mm
08:46 PM 52.7°F11.5°C 30.9°F-0.6°C 43% 3.0 mph NE4.8 kmh NE 4.0 mph6.4 kmh 30.26 in1024.7 mb 0.00 in0.0 mm 0.00 in0.0 mm 0.00 in0.0 mm
08:48 PM 52.6°F11.4°C 30.8°F-0.7°C 43% 2.0 mph NE3.2 kmh NE 4.0 mph6.4 kmh 30.26 in1024.7 mb 0.00 in0.0 mm 0.00 in0.0 mm 0.00 in0.0 mm
08:50 PM 52.6°F11.4°C 30.8°F-0.7°C 43% 2.0 mph NE3.2 kmh NE 4.0 mph6.4 kmh 30.26 in1024.7 mb 0.00 in0.0 mm 0.00 in0.0 mm 0.00 in0.0 mm
08:52 PM 52.6°F11.4°C 30.8°F-0.7°C 43% 3.0 mph NE4.8 kmh NE 4.0 mph6.4 kmh 30.26 in1024.7 mb 0.00 in0.0 mm 0.00 in0.0 mm 0.00 in0.0 mm
08:54 PM 52.6°F11.4°C 30.8°F-0.7°C 43% 2.0 mph NE3.2 kmh NE 4.0 mph6.4 kmh 30.26 in1024.7 mb 0.00 in0.0 mm 0.00 in0.0 mm 0.00 in0.0 mm
08:56 PM 52.6°F11.4°C 30.8°F-0.7°C 43% 3.0 mph NE4.8 kmh NE 4.0 mph6.4 kmh 30.26 in1024.7 mb 0.00 in0.0 mm 0.00 in0.0 mm 0.00 in0.0 mm
08:58 PM 52.6°F11.4°C 30.8°F-0.7°C 43% 4.0 mph NE6.4 kmh NE 4.0 mph6.4 kmh 30.26 in1024.7 mb 0.00 in0.0 mm 0.00 in0.0 mm 0.00 in0.0 mm
09:00 PM 52.6°F11.4°C 30.8°F-0.7°C 43% 3.0 mph ENE4.8 kmh ENE 4.0 mph6.4 kmh 30.26 in1024.7 mb 0.00 in0.0 mm 0.00 in0.0 mm 0.00 in0.0 mm
09:02 PM 52.5°F11.4°C 31.2°F-0.4°C 44% 2.0 mph ENE3.2 kmh ENE 4.0 mph6.4 kmh 30.26 in1024.7 mb 0.00 in0.0 mm 0.00 in0.0 mm 0.00 in0.0 mm
09:04 PM 52.5°F11.4°C 31.2°F-0.4°C 44% 2.0 mph ENE3.2 kmh ENE 3.0 mph4.8 kmh 30.26 in1024.7 mb 0.00 in0.0 mm 0.00 in0.0 mm 0.00 in0.0 mm
09:06 PM 52.5°F11.4°C 31.2°F-0.4°C 44% 3.0 mph ENE4.8 kmh ENE 4.0 mph6.4 kmh 30.25 in1024.4 mb 0.00 in0.0 mm 0.00 in0.0 mm 0.00 in0.0 mm
09:08 PM 52.4°F11.3°C 31.7°F-0.2°C 45% 3.0 mph ENE4.8 kmh ENE 4.0 mph6.4 kmh 30.25 in1024.4 mb 0.00 in0.0 mm 0.00 in0.0 mm 0.00 in0.0 mm
09:10 PM 52.3°F11.3°C 31.6°F-0.2°C 45% 2.0 mph ENE3.2 kmh ENE 4.0 mph6.4 kmh 30.25 in1024.4 mb 0.00 in0.0 mm 0.00 in0.0 mm 0.00 in0.0 mm
09:12 PM 52.2°F11.2°C 31.5°F-0.3°C 45% 3.0 mph ENE4.8 kmh ENE 4.0 mph6.4 kmh 30.25 in1024.4 mb 0.00 in0.0 mm 0.00 in0.0 mm 0.00 in0.0 mm
09:14 PM 52.2°F11.2°C 31.5°F-0.3°C 45% 3.0 mph ENE4.8 kmh ENE 4.0 mph6.4 kmh 30.25 in1024.4 mb 0.00 in0.0 mm 0.00 in0.0 mm 0.00 in0.0 mm
09:16 PM 52.2°F11.2°C 31.5°F-0.3°C 45% 3.0 mph ENE4.8 kmh ENE 4.0 mph6.4 kmh 30.25 in1024.4 mb 0.00 in0.0 mm 0.00 in0.0 mm 0.00 in0.0 mm
09:18 PM 52.2°F11.2°C 31.5°F-0.3°C 45% 2.0 mph ENE3.2 kmh ENE 4.0 mph6.4 kmh 30.25 in1024.4 mb 0.00 in0.0 mm 0.00 in0.0 mm 0.00 in0.0 mm
09:20 PM 52.1°F11.2°C 31.4°F-0.3°C 45% 2.0 mph ENE3.2 kmh ENE 4.0 mph6.4 kmh 30.25 in1024.4 mb 0.00 in0.0 mm 0.00 in0.0 mm 0.00 in0.0 mm
09:22 PM 52.1°F11.2°C 31.4°F-0.3°C 45% 3.0 mph ENE4.8 kmh ENE 4.0 mph6.4 kmh 30.26 in1024.7 mb 0.00 in0.0 mm 0.00 in0.0 mm 0.00 in0.0 mm
09:24 PM 52.1°F11.2°C 32.0°F0.0°C 46% 3.0 mph ENE4.8 kmh ENE 4.0 mph6.4 kmh 30.25 in1024.4 mb 0.00 in0.0 mm 0.00 in0.0 mm 0.00 in0.0 mm
09:25 PM 52.0°F11.1°C 31.9°F-0.1°C 46% 3.0 mph ENE4.8 kmh ENE 4.0 mph6.4 kmh 30.25 in1024.4 mb 0.00 in0.0 mm 0.00 in0.0 mm 0.00 in0.0 mm
09:28 PM 52.0°F11.1°C 31.9°F-0.1°C 46% 2.0 mph ENE3.2 kmh ENE 4.0 mph6.4 kmh 30.25 in1024.4 mb 0.00 in0.0 mm 0.00 in0.0 mm 0.00 in0.0 mm
09:30 PM 51.8°F11.0°C 31.7°F-0.2°C 46% 2.0 mph ENE3.2 kmh ENE 4.0 mph6.4 kmh 30.25 in1024.4 mb 0.00 in0.0 mm 0.00 in0.0 mm 0.00 in0.0 mm
09:32 PM 51.7°F10.9°C 32.1°F0.1°C 47% 2.0 mph ENE3.2 kmh ENE 4.0 mph6.4 kmh 30.25 in1024.4 mb 0.00 in0.0 mm 0.00 in0.0 mm 0.00 in0.0 mm
09:34 PM 51.6°F10.9°C 32.1°F0.1°C 47% 3.0 mph ENE4.8 kmh ENE 4.0 mph6.4 kmh 30.25 in1024.4 mb 0.00 in0.0 mm 0.00 in0.0 mm 0.00 in0.0 mm
09:36 PM 51.5°F10.8°C 32.0°F0.0°C 47% 2.0 mph ENE3.2 kmh ENE 4.0 mph6.4 kmh 30.25 in1024.4 mb 0.00 in0.0 mm 0.00 in0.0 mm 0.00 in0.0 mm
09:38 PM 51.3°F10.7°C 31.8°F-0.1°C 47% 3.0 mph ENE4.8 kmh ENE 4.0 mph6.4 kmh 30.25 in1024.4 mb 0.00 in0.0 mm 0.00 in0.0 mm 0.00 in0.0 mm
09:40 PM 51.1°F10.6°C 31.6°F-0.2°C 47% 2.0 mph ENE3.2 kmh ENE 4.0 mph6.4 kmh 30.25 in1024.4 mb 0.00 in0.0 mm 0.00 in0.0 mm 0.00 in0.0 mm
09:42 PM 51.0°F10.6°C 32.0°F0.0°C 48% 3.0 mph ENE4.8 kmh ENE 4.0 mph6.4 kmh 30.25 in1024.4 mb 0.00 in0.0 mm 0.00 in0.0 mm 0.00 in0.0 mm
09:44 PM 51.0°F10.6°C 32.0°F0.0°C 48% 3.0 mph ENE4.8 kmh ENE 4.0 mph6.4 kmh 30.25 in1024.4 mb 0.00 in0.0 mm 0.00 in0.0 mm 0.00 in0.0 mm
09:46 PM 50.9°F10.5°C 31.9°F-0.1°C 48% 2.0 mph ENE3.2 kmh ENE 4.0 mph6.4 kmh 30.25 in1024.4 mb 0.00 in0.0 mm 0.00 in0.0 mm 0.00 in0.0 mm
09:48 PM 50.8°F10.4°C 31.8°F-0.1°C 48% 2.0 mph ENE3.2 kmh ENE 4.0 mph6.4 kmh 30.25 in1024.4 mb 0.00 in0.0 mm 0.00 in0.0 mm 0.00 in0.0 mm
09:50 PM 50.7°F10.4°C 31.7°F-0.2°C 48% 2.0 mph ENE3.2 kmh ENE 4.0 mph6.4 kmh 30.25 in1024.4 mb 0.00 in0.0 mm 0.00 in0.0 mm 0.00 in0.0 mm
09:52 PM 50.6°F10.3°C 32.2°F0.1°C 49% 1.0 mph ENE1.6 kmh ENE 4.0 mph6.4 kmh 30.25 in1024.4 mb 0.00 in0.0 mm 0.00 in0.0 mm 0.00 in0.0 mm
09:54 PM 50.6°F10.3°C 32.2°F0.1°C 49% 2.0 mph ENE3.2 kmh ENE 4.0 mph6.4 kmh 30.25 in1024.4 mb 0.00 in0.0 mm 0.00 in0.0 mm 0.00 in0.0 mm
09:56 PM 50.5°F10.3°C 32.1°F0.1°C 49% 3.0 mph ENE4.8 kmh ENE 4.0 mph6.4 kmh 30.25 in1024.4 mb 0.00 in0.0 mm 0.00 in0.0 mm 0.00 in0.0 mm
09:58 PM 50.5°F10.3°C 32.1°F0.1°C 49% 2.0 mph ENE3.2 kmh ENE 4.0 mph6.4 kmh 30.25 in1024.4 mb 0.00 in0.0 mm 0.00 in0.0 mm 0.00 in0.0 mm
10:00 PM 50.6°F10.3°C 32.2°F0.1°C 49% 3.0 mph ENE4.8 kmh ENE 4.0 mph6.4 kmh 30.25 in1024.4 mb 0.00 in0.0 mm 0.00 in0.0 mm 0.00 in0.0 mm
10:02 PM 50.6°F10.3°C 32.2°F0.1°C 49% 3.0 mph ENE4.8 kmh ENE 3.0 mph4.8 kmh 30.25 in1024.4 mb 0.00 in0.0 mm 0.00 in0.0 mm 0.00 in0.0 mm
10:04 PM 50.7°F10.4°C 32.3°F0.2°C 49% 2.0 mph ENE3.2 kmh ENE 4.0 mph6.4 kmh 30.25 in1024.4 mb 0.00 in0.0 mm 0.00 in0.0 mm 0.00 in0.0 mm
10:06 PM 50.7°F10.4°C 31.7°F-0.2°C 48% 3.0 mph ENE4.8 kmh ENE 4.0 mph6.4 kmh 30.25 in1024.4 mb 0.00 in0.0 mm 0.00 in0.0 mm 0.00 in0.0 mm
10:08 PM 50.7°F10.4°C 31.7°F-0.2°C 48% 3.0 mph ENE4.8 kmh ENE 4.0 mph6.4 kmh 30.25 in1024.4 mb 0.00 in0.0 mm 0.00 in0.0 mm 0.00 in0.0 mm
10:10 PM 50.7°F10.4°C 31.7°F-0.2°C 48% 3.0 mph ENE4.8 kmh ENE 4.0 mph6.4 kmh 30.25 in1024.4 mb 0.00 in0.0 mm 0.00 in0.0 mm 0.00 in0.0 mm
10:12 PM 50.7°F10.4°C 31.7°F-0.2°C 48% 2.0 mph ENE3.2 kmh ENE 4.0 mph6.4 kmh 30.25 in1024.4 mb 0.00 in0.0 mm 0.00 in0.0 mm 0.00 in0.0 mm
10:14 PM 50.7°F10.4°C 31.7°F-0.2°C 48% 2.0 mph ENE3.2 kmh ENE 4.0 mph6.4 kmh 30.25 in1024.4 mb 0.00 in0.0 mm 0.00 in0.0 mm 0.00 in0.0 mm
10:16 PM 50.7°F10.4°C 31.7°F-0.2°C 48% 2.0 mph ENE3.2 kmh ENE 4.0 mph6.4 kmh 30.25 in1024.4 mb 0.00 in0.0 mm 0.00 in0.0 mm 0.00 in0.0 mm
10:18 PM 50.7°F10.4°C 31.7°F-0.2°C 48% 3.0 mph ENE4.8 kmh ENE 4.0 mph6.4 kmh 30.25 in1024.4 mb 0.00 in0.0 mm 0.00 in0.0 mm 0.00 in0.0 mm
10:20 PM 50.7°F10.4°C 31.7°F-0.2°C 48% 2.0 mph ENE3.2 kmh ENE 4.0 mph6.4 kmh 30.25 in1024.4 mb 0.00 in0.0 mm 0.00 in0.0 mm 0.00 in0.0 mm
10:22 PM 50.7°F10.4°C 31.7°F-0.2°C 48% 2.0 mph ENE3.2 kmh ENE 4.0 mph6.4 kmh 30.25 in1024.4 mb 0.00 in0.0 mm 0.00 in0.0 mm 0.00 in0.0 mm
10:24 PM 50.7°F10.4°C 31.7°F-0.2°C 48% 3.0 mph ENE4.8 kmh ENE 4.0 mph6.4 kmh 30.25 in1024.4 mb 0.00 in0.0 mm 0.00 in0.0 mm 0.00 in0.0 mm
10:26 PM 50.7°F10.4°C 31.7°F-0.2°C 48% 3.0 mph ENE4.8 kmh ENE 4.0 mph6.4 kmh 30.25 in1024.4 mb 0.00 in0.0 mm 0.00 in0.0 mm 0.00 in0.0 mm
10:28 PM 50.7°F10.4°C 31.7°F-0.2°C 48% 2.0 mph ENE3.2 kmh ENE 4.0 mph6.4 kmh 30.25 in1024.4 mb 0.00 in0.0 mm 0.00 in0.0 mm 0.00 in0.0 mm
10:30 PM 50.7°F10.4°C 31.7°F-0.2°C 48% 2.0 mph ENE3.2 kmh ENE 4.0 mph6.4 kmh 30.25 in1024.4 mb 0.00 in0.0 mm 0.00 in0.0 mm 0.00 in0.0 mm
10:32 PM 50.7°F10.4°C 31.7°F-0.2°C 48% 2.0 mph ENE3.2 kmh ENE 2.0 mph3.2 kmh 30.25 in1024.4 mb 0.00 in0.0 mm 0.00 in0.0 mm 0.00 in0.0 mm
10:34 PM 50.7°F10.4°C 31.7°F-0.2°C 48% 2.0 mph ENE3.2 kmh ENE 3.0 mph4.8 kmh 30.25 in1024.4 mb 0.00 in0.0 mm 0.00 in0.0 mm 0.00 in0.0 mm
10:36 PM 50.7°F10.4°C 31.7°F-0.2°C 48% 1.0 mph ENE1.6 kmh ENE 4.0 mph6.4 kmh 30.25 in1024.4 mb 0.00 in0.0 mm 0.00 in0.0 mm 0.00 in0.0 mm
10:38 PM 50.8°F10.4°C 31.3°F-0.4°C 47% 2.0 mph ENE3.2 kmh ENE 4.0 mph6.4 kmh 30.25 in1024.4 mb 0.00 in0.0 mm 0.00 in0.0 mm 0.00 in0.0 mm
10:40 PM 50.8°F10.4°C 31.3°F-0.4°C 47% 3.0 mph ENE4.8 kmh ENE 4.0 mph6.4 kmh 30.25 in1024.4 mb 0.00 in0.0 mm 0.00 in0.0 mm 0.00 in0.0 mm
10:42 PM 50.8°F10.4°C 31.8°F-0.1°C 48% 3.0 mph ENE4.8 kmh ENE 4.0 mph6.4 kmh 30.25 in1024.4 mb 0.00 in0.0 mm 0.00 in0.0 mm 0.00 in0.0 mm
10:44 PM 50.8°F10.4°C 31.8°F-0.1°C 48% 2.0 mph ENE3.2 kmh ENE 4.0 mph6.4 kmh 30.25 in1024.4 mb 0.00 in0.0 mm 0.00 in0.0 mm 0.00 in0.0 mm
10:46 PM 50.8°F10.4°C 31.8°F-0.1°C 48% 2.0 mph ENE3.2 kmh ENE 4.0 mph6.4 kmh 30.25 in1024.4 mb 0.00 in0.0 mm 0.00 in0.0 mm 0.00 in0.0 mm
10:48 PM 50.8°F10.4°C 31.8°F-0.1°C 48% 2.0 mph ENE3.2 kmh ENE 4.0 mph6.4 kmh 30.24 in1024.0 mb 0.00 in0.0 mm 0.00 in0.0 mm 0.00 in0.0 mm
10:50 PM 50.7°F10.4°C 31.7°F-0.2°C 48% 3.0 mph ENE4.8 kmh ENE 4.0 mph6.4 kmh 30.24 in1024.0 mb 0.00 in0.0 mm 0.00 in0.0 mm 0.00 in0.0 mm
10:52 PM 50.7°F10.4°C 31.7°F-0.2°C 48% 2.0 mph ENE3.2 kmh ENE 4.0 mph6.4 kmh 30.25 in1024.4 mb 0.00 in0.0 mm 0.00 in0.0 mm 0.00 in0.0 mm
10:54 PM 50.7°F10.4°C 31.7°F-0.2°C 48% 2.0 mph ENE3.2 kmh ENE 4.0 mph6.4 kmh 30.25 in1024.4 mb 0.00 in0.0 mm 0.00 in0.0 mm 0.00 in0.0 mm
10:56 PM 50.6°F10.3°C 31.7°F-0.2°C 48% 1.0 mph ENE1.6 kmh ENE 4.0 mph6.4 kmh 30.25 in1024.4 mb 0.00 in0.0 mm 0.00 in0.0 mm 0.00 in0.0 mm
10:58 PM 50.6°F10.3°C 31.7°F-0.2°C 48% 3.0 mph ENE4.8 kmh ENE 4.0 mph6.4 kmh 30.25 in1024.4 mb 0.00 in0.0 mm 0.00 in0.0 mm 0.00 in0.0 mm
11:00 PM 50.6°F10.3°C 31.7°F-0.2°C 48% 3.0 mph ENE4.8 kmh ENE 4.0 mph6.4 kmh 30.24 in1024.0 mb 0.00 in0.0 mm 0.00 in0.0 mm 0.00 in0.0 mm
11:02 PM 50.5°F10.3°C 31.6°F-0.2°C 48% 1.0 mph ENE1.6 kmh ENE 4.0 mph6.4 kmh 30.25 in1024.4 mb 0.00 in0.0 mm 0.00 in0.0 mm 0.00 in0.0 mm
11:04 PM 50.4°F10.2°C 32.0°F0.0°C 49% Calm Calm 3.0 mph4.8 kmh 30.25 in1024.4 mb 0.00 in0.0 mm 0.00 in0.0 mm 0.00 in0.0 mm
11:06 PM 50.2°F10.1°C 31.8°F-0.1°C 49% 1.0 mph ENE1.6 kmh ENE 3.0 mph4.8 kmh 30.25 in1024.4 mb 0.00 in0.0 mm 0.00 in0.0 mm 0.00 in0.0 mm
11:08 PM 50.1°F10.1°C 31.7°F-0.2°C 49% 2.0 mph ENE3.2 kmh ENE 3.0 mph4.8 kmh 30.25 in1024.4 mb 0.00 in0.0 mm 0.00 in0.0 mm 0.00 in0.0 mm
11:10 PM 50.0°F10.0°C 31.6°F-0.2°C 49% Calm Calm 3.0 mph4.8 kmh 30.25 in1024.4 mb 0.00 in0.0 mm 0.00 in0.0 mm 0.00 in0.0 mm
11:12 PM 49.9°F9.9°C 31.5°F-0.3°C 49% 1.0 mph ENE1.6 kmh ENE 3.0 mph4.8 kmh 30.24 in1024.0 mb 0.00 in0.0 mm 0.00 in0.0 mm 0.00 in0.0 mm
11:14 PM 49.8°F9.9°C 31.9°F-0.1°C 50% Calm Calm 3.0 mph4.8 kmh 30.24 in1024.0 mb 0.00 in0.0 mm 0.00 in0.0 mm 0.00 in0.0 mm
11:16 PM 49.7°F9.8°C 31.8°F-0.1°C 50% 1.0 mph ENE1.6 kmh ENE 3.0 mph4.8 kmh 30.24 in1024.0 mb 0.00 in0.0 mm 0.00 in0.0 mm 0.00 in0.0 mm
11:18 PM 49.7°F9.8°C 31.8°F-0.1°C 50% Calm Calm 3.0 mph4.8 kmh 30.24 in1024.0 mb 0.00 in0.0 mm 0.00 in0.0 mm 0.00 in0.0 mm
11:20 PM 49.5°F9.7°C 31.7°F-0.2°C 50% Calm Calm 3.0 mph4.8 kmh 30.24 in1024.0 mb 0.00 in0.0 mm 0.00 in0.0 mm 0.00 in0.0 mm
11:22 PM 49.5°F9.7°C 32.1°F0.1°C 51% 1.0 mph ENE1.6 kmh ENE 3.0 mph4.8 kmh 30.24 in1024.0 mb 0.00 in0.0 mm 0.00 in0.0 mm 0.00 in0.0 mm
11:24 PM 49.4°F9.7°C 32.1°F0.1°C 51% 1.0 mph ENE1.6 kmh ENE 3.0 mph4.8 kmh 30.24 in1024.0 mb 0.00 in0.0 mm 0.00 in0.0 mm 0.00 in0.0 mm
11:26 PM 49.3°F9.6°C 32.0°F0.0°C 51% 2.0 mph ENE3.2 kmh ENE 3.0 mph4.8 kmh 30.24 in1024.0 mb 0.00 in0.0 mm 0.00 in0.0 mm 0.00 in0.0 mm
11:28 PM 49.3°F9.6°C 32.4°F0.2°C 52% 1.0 mph ENE1.6 kmh ENE 3.0 mph4.8 kmh 30.24 in1024.0 mb 0.00 in0.0 mm 0.00 in0.0 mm 0.00 in0.0 mm
11:30 PM 49.1°F9.5°C 32.3°F0.2°C 52% 2.0 mph ENE3.2 kmh ENE 3.0 mph4.8 kmh 30.24 in1024.0 mb 0.00 in0.0 mm 0.00 in0.0 mm 0.00 in0.0 mm
11:32 PM 49.1°F9.5°C 32.3°F0.2°C 52% 1.0 mph ENE1.6 kmh ENE 2.0 mph3.2 kmh 30.24 in1024.0 mb 0.00 in0.0 mm 0.00 in0.0 mm 0.00 in0.0 mm
11:34 PM 49.0°F9.4°C 32.2°F0.1°C 52% 2.0 mph ENE3.2 kmh ENE 2.0 mph3.2 kmh 30.24 in1024.0 mb 0.00 in0.0 mm 0.00 in0.0 mm 0.00 in0.0 mm
11:36 PM 48.9°F9.4°C 32.1°F0.1°C 52% 1.0 mph ENE1.6 kmh ENE 2.0 mph3.2 kmh 30.24 in1024.0 mb 0.00 in0.0 mm 0.00 in0.0 mm 0.00 in0.0 mm
11:38 PM 48.8°F9.3°C 32.0°F0.0°C 52% 1.0 mph ENE1.6 kmh ENE 2.0 mph3.2 kmh 30.24 in1024.0 mb 0.00 in0.0 mm 0.00 in0.0 mm 0.00 in0.0 mm
11:40 PM 48.8°F9.3°C 32.0°F0.0°C 52% 1.0 mph ENE1.6 kmh ENE 2.0 mph3.2 kmh 30.24 in1024.0 mb 0.00 in0.0 mm 0.00 in0.0 mm 0.00 in0.0 mm
11:42 PM 48.6°F9.2°C 31.8°F-0.1°C 52% 2.0 mph ENE3.2 kmh ENE 2.0 mph3.2 kmh 30.24 in1024.0 mb 0.00 in0.0 mm 0.00 in0.0 mm 0.00 in0.0 mm
11:44 PM 48.6°F9.2°C 32.3°F0.2°C 53% Calm Calm 2.0 mph3.2 kmh 30.24 in1024.0 mb 0.00 in0.0 mm 0.00 in0.0 mm 0.00 in0.0 mm
11:46 PM 48.5°F9.2°C 32.2°F0.1°C 53% 1.0 mph ENE1.6 kmh ENE 2.0 mph3.2 kmh 30.24 in1024.0 mb 0.00 in0.0 mm 0.00 in0.0 mm 0.00 in0.0 mm
11:48 PM 48.5°F9.2°C 32.2°F0.1°C 53% 2.0 mph ENE3.2 kmh ENE 3.0 mph4.8 kmh 30.24 in1024.0 mb 0.00 in0.0 mm 0.00 in0.0 mm 0.00 in0.0 mm
11:50 PM 48.5°F9.2°C 32.2°F0.1°C 53% 1.0 mph ENE1.6 kmh ENE 3.0 mph4.8 kmh 30.23 in1023.7 mb 0.00 in0.0 mm 0.00 in0.0 mm 0.00 in0.0 mm
11:52 PM 48.4°F9.1°C 32.1°F0.1°C 53% 1.0 mph ENE1.6 kmh ENE 3.0 mph4.8 kmh 30.23 in1023.7 mb 0.00 in0.0 mm 0.00 in0.0 mm 0.00 in0.0 mm
11:54 PM 48.4°F9.1°C 32.1°F0.1°C 53% 1.0 mph ENE1.6 kmh ENE 3.0 mph4.8 kmh 30.23 in1023.7 mb 0.00 in0.0 mm 0.00 in0.0 mm 0.00 in0.0 mm
11:56 PM 48.4°F9.1°C 32.1°F0.1°C 53% 1.0 mph ENE1.6 kmh ENE 3.0 mph4.8 kmh 30.23 in1023.7 mb 0.00 in0.0 mm 0.00 in0.0 mm 0.00 in0.0 mm
11:58 PM 48.3°F9.1°C 32.0°F0.0°C 53% 1.0 mph ENE1.6 kmh ENE 3.0 mph4.8 kmh 30.23 in1023.7 mb 0.00 in0.0 mm 0.00 in0.0 mm 0.00 in0.0 mm